createdAt,value
2022-11-29T00:00:35.354Z,954.23
2022-11-29T00:01:35.348Z,954.25
2022-11-29T00:02:35.525Z,954.22
2022-11-29T00:03:37.228Z,954.2
2022-11-29T00:04:39.398Z,954.22
2022-11-29T00:05:41.237Z,954.23
2022-11-29T00:06:43.233Z,954.26
2022-11-29T00:07:45.299Z,954.24
2022-11-29T00:08:47.240Z,954.27
2022-11-29T00:09:49.287Z,954.25
2022-11-29T00:10:51.241Z,954.25
2022-11-29T00:11:53.245Z,954.22
2022-11-29T00:12:55.255Z,954.26
2022-11-29T00:13:59.248Z,954.24
2022-11-29T00:15:01.289Z,954.28
2022-11-29T00:16:04.250Z,954.32
2022-11-29T00:17:06.256Z,954.31
2022-11-29T00:18:08.258Z,954.27
2022-11-29T00:19:10.266Z,954.3
2022-11-29T00:20:12.461Z,954.28
2022-11-29T00:21:14.243Z,954.28
2022-11-29T00:22:16.254Z,954.26
2022-11-29T00:23:18.245Z,954.26
2022-11-29T00:24:21.252Z,954.27
2022-11-29T00:25:23.282Z,954.24
2022-11-29T00:26:25.248Z,954.26
2022-11-29T00:27:27.250Z,954.29
2022-11-29T00:28:29.256Z,954.23
2022-11-29T00:29:31.331Z,954.23
2022-11-29T00:30:33.345Z,954.23
2022-11-29T00:31:35.261Z,954.23
2022-11-29T00:32:37.258Z,954.22
2022-11-29T00:33:39.287Z,954.2
2022-11-29T00:34:41.462Z,954.2
2022-11-29T00:35:44.255Z,954.21
2022-11-29T00:36:46.288Z,954.2
2022-11-29T00:37:48.245Z,954.19
2022-11-29T00:38:50.271Z,954.18
2022-11-29T00:39:52.260Z,954.18
2022-11-29T00:40:55.306Z,954.14
2022-11-29T00:41:59.265Z,954.19
2022-11-29T00:43:01.256Z,954.18
2022-11-29T00:44:03.262Z,954.18
2022-11-29T00:45:05.265Z,954.17
2022-11-29T00:46:07.336Z,954.18
2022-11-29T00:47:09.266Z,954.17
2022-11-29T00:48:11.269Z,954.17
2022-11-29T00:49:13.261Z,954.15
2022-11-29T00:50:15.264Z,954.14
2022-11-29T00:51:17.299Z,954.14
2022-11-29T00:52:19.305Z,954.13
2022-11-29T00:53:21.262Z,954.15
2022-11-29T00:54:23.264Z,954.16
2022-11-29T00:55:25.272Z,954.18
2022-11-29T00:56:27.261Z,954.16
2022-11-29T00:57:29.313Z,954.17
2022-11-29T00:58:31.269Z,954.18
2022-11-29T00:59:33.282Z,954.16
2022-11-29T01:00:35.282Z,954.17
2022-11-29T01:01:37.367Z,954.16
2022-11-29T01:02:39.355Z,954.15
2022-11-29T01:03:41.277Z,954.15
2022-11-29T01:04:43.663Z,954.16
2022-11-29T01:05:45.275Z,954.17
2022-11-29T01:06:47.312Z,954.17
2022-11-29T01:07:49.407Z,954.16
2022-11-29T01:08:51.276Z,954.15
2022-11-29T01:09:53.275Z,954.2
2022-11-29T01:10:55.311Z,954.17
2022-11-29T01:11:58.280Z,954.12
2022-11-29T01:13:00.289Z,954.16
2022-11-29T01:14:02.286Z,954.14
2022-11-29T01:15:04.290Z,954.16
2022-11-29T01:16:06.286Z,954.14
2022-11-29T01:17:08.338Z,954.14
2022-11-29T01:18:10.295Z,954.14
2022-11-29T01:19:12.282Z,954.15
2022-11-29T01:20:14.287Z,954.13
2022-11-29T01:21:16.292Z,954.17
2022-11-29T01:22:18.320Z,954.15
2022-11-29T01:23:20.299Z,954.16
2022-11-29T01:24:22.290Z,954.14
2022-11-29T01:25:24.292Z,954.15
2022-11-29T01:26:26.295Z,954.17
2022-11-29T01:27:28.292Z,954.18
2022-11-29T01:28:30.328Z,954.17
2022-11-29T01:29:32.289Z,954.15
2022-11-29T01:30:34.395Z,954.17
2022-11-29T01:31:36.295Z,954.21
2022-11-29T01:32:38.294Z,954.19
2022-11-29T01:33:40.337Z,954.18
2022-11-29T01:34:42.825Z,954.18
2022-11-29T01:35:44.296Z,954.18
2022-11-29T01:36:46.301Z,954.18
2022-11-29T01:37:48.329Z,954.19
2022-11-29T01:38:50.335Z,954.2
2022-11-29T01:39:52.291Z,954.23
2022-11-29T01:40:55.312Z,954.19
2022-11-29T01:41:59.302Z,954.18
2022-11-29T01:43:01.316Z,954.18
2022-11-29T01:44:03.322Z,954.19
2022-11-29T01:45:05.325Z,954.18
2022-11-29T01:46:07.321Z,954.16
2022-11-29T01:47:09.339Z,954.18
2022-11-29T01:48:11.317Z,954.19
2022-11-29T01:49:13.308Z,954.16
2022-11-29T01:50:15.308Z,954.17
2022-11-29T01:51:17.322Z,954.18
2022-11-29T01:52:19.308Z,954.16
2022-11-29T01:53:21.308Z,954.17
2022-11-29T01:54:23.310Z,954.14
2022-11-29T01:55:25.339Z,954.15
2022-11-29T01:56:27.307Z,954.16
2022-11-29T01:57:29.317Z,954.16
2022-11-29T01:58:31.315Z,954.14
2022-11-29T01:59:33.303Z,954.17
2022-11-29T02:00:35.339Z,954.16
2022-11-29T02:01:37.388Z,954.15
2022-11-29T02:02:39.453Z,954.17
2022-11-29T02:04:43.815Z,954.13
2022-11-29T02:05:45.315Z,954.14
2022-11-29T02:06:47.314Z,954.12
2022-11-29T02:07:49.384Z,954.11
2022-11-29T02:08:51.312Z,954.16
2022-11-29T02:09:53.317Z,954.13
2022-11-29T02:10:55.332Z,954.14
2022-11-29T02:11:59.329Z,954.17
2022-11-29T02:13:01.319Z,954.15
2022-11-29T02:14:03.320Z,954.14
2022-11-29T02:15:05.353Z,954.16
2022-11-29T02:16:07.376Z,954.11
2022-11-29T02:17:09.324Z,954.18
2022-11-29T02:18:11.324Z,954.19
2022-11-29T02:19:13.332Z,954.17
2022-11-29T02:20:15.328Z,954.18
2022-11-29T02:21:17.324Z,954.23
2022-11-29T02:22:19.327Z,954.22
2022-11-29T02:23:22.341Z,954.22
2022-11-29T02:24:24.334Z,954.2
2022-11-29T02:25:26.329Z,954.24
2022-11-29T02:26:28.411Z,954.23
2022-11-29T02:27:30.328Z,954.19
2022-11-29T02:28:32.338Z,954.23
2022-11-29T02:29:34.345Z,954.21
2022-11-29T02:30:36.425Z,954.26
2022-11-29T02:31:38.342Z,954.25
2022-11-29T02:32:40.329Z,954.22
2022-11-29T02:33:42.336Z,954.26
2022-11-29T02:34:44.693Z,954.26
2022-11-29T02:35:46.344Z,954.26
2022-11-29T02:36:48.398Z,954.25
2022-11-29T02:37:50.333Z,954.26
2022-11-29T02:38:52.344Z,954.26
2022-11-29T02:39:55.351Z,954.27
2022-11-29T02:40:58.340Z,954.28
2022-11-29T02:42:00.345Z,954.28
2022-11-29T02:43:02.344Z,954.29
2022-11-29T02:44:04.342Z,954.28
2022-11-29T02:45:06.339Z,954.29
2022-11-29T02:46:08.384Z,954.29
2022-11-29T02:47:10.372Z,954.25
2022-11-29T02:48:12.351Z,954.26
2022-11-29T02:49:14.348Z,954.26
2022-11-29T02:50:16.350Z,954.26
2022-11-29T02:51:18.361Z,954.28
2022-11-29T02:52:20.389Z,954.27
2022-11-29T02:53:22.344Z,954.27
2022-11-29T02:54:24.363Z,954.27
2022-11-29T02:55:26.353Z,954.25
2022-11-29T02:56:28.344Z,954.24
2022-11-29T02:57:30.371Z,954.21
2022-11-29T02:58:32.354Z,954.23
2022-11-29T02:59:34.359Z,954.24
2022-11-29T03:00:36.356Z,954.23
2022-11-29T03:01:38.385Z,954.24
2022-11-29T03:02:40.655Z,954.24
2022-11-29T03:04:44.598Z,954.23
2022-11-29T03:05:46.358Z,954.22
2022-11-29T03:07:35.548Z,954.22
2022-11-29T03:08:35.662Z,954.27
2022-11-29T03:09:35.506Z,954.28
2022-11-29T03:10:35.475Z,954.28
2022-11-29T03:11:35.478Z,954.28
2022-11-29T03:12:35.466Z,954.26
2022-11-29T03:13:35.517Z,954.28
2022-11-29T03:14:35.480Z,954.3
2022-11-29T03:15:35.533Z,954.3
2022-11-29T03:16:41.286Z,954.31
2022-11-29T03:17:35.485Z,954.33
2022-11-29T03:18:35.502Z,954.31
2022-11-29T03:19:35.503Z,954.32
2022-11-29T03:20:35.478Z,954.33
2022-11-29T03:21:35.486Z,954.31
2022-11-29T03:22:35.478Z,954.37
2022-11-29T03:23:35.686Z,954.37
2022-11-29T03:24:35.510Z,954.37
2022-11-29T03:25:35.481Z,954.38
2022-11-29T03:26:35.490Z,954.4
2022-11-29T03:27:35.889Z,954.4
2022-11-29T03:28:36.035Z,954.43
2022-11-29T03:29:37.078Z,954.43
2022-11-29T03:30:38.453Z,954.42
2022-11-29T03:31:41.397Z,954.43
2022-11-29T03:32:43.431Z,954.44
2022-11-29T03:33:45.366Z,954.45
2022-11-29T03:34:51.738Z,954.41
2022-11-29T03:35:50.381Z,954.43
2022-11-29T03:36:52.372Z,954.44
2022-11-29T03:37:56.412Z,954.45
2022-11-29T03:38:58.420Z,954.46
2022-11-29T03:40:00.424Z,954.45
2022-11-29T03:41:02.376Z,954.46
2022-11-29T03:42:04.387Z,954.44
2022-11-29T03:43:06.411Z,954.47
2022-11-29T03:44:08.376Z,954.46
2022-11-29T03:45:10.377Z,954.46
2022-11-29T03:46:12.487Z,954.48
2022-11-29T03:47:14.419Z,954.48
2022-11-29T03:48:16.422Z,954.48
2022-11-29T03:49:18.378Z,954.46
2022-11-29T03:50:20.383Z,954.43
2022-11-29T03:51:22.387Z,954.44
2022-11-29T03:52:25.380Z,954.43
2022-11-29T03:53:27.395Z,954.44
2022-11-29T03:54:29.384Z,954.45
2022-11-29T03:55:31.404Z,954.48
2022-11-29T03:56:33.394Z,954.45
2022-11-29T03:57:35.601Z,954.46
2022-11-29T03:58:37.401Z,954.44
2022-11-29T03:59:39.386Z,954.45
2022-11-29T04:00:41.416Z,954.46
2022-11-29T04:01:43.463Z,954.47
2022-11-29T04:02:45.450Z,954.49
2022-11-29T04:03:48.392Z,954.48
2022-11-29T04:04:50.390Z,954.49
2022-11-29T04:05:52.398Z,954.46
2022-11-29T04:06:55.467Z,954.5
2022-11-29T04:07:58.466Z,954.5
2022-11-29T04:09:00.389Z,954.49
2022-11-29T04:10:02.390Z,954.49
2022-11-29T04:11:04.400Z,954.53
2022-11-29T04:12:06.418Z,954.51
2022-11-29T04:13:08.393Z,954.49
2022-11-29T04:14:10.393Z,954.5
2022-11-29T04:15:15.463Z,954.53
2022-11-29T04:16:14.491Z,954.56
2022-11-29T04:17:35.552Z,954.58
2022-11-29T04:18:35.527Z,954.56
2022-11-29T04:19:35.522Z,954.57
2022-11-29T04:20:39.715Z,954.57
2022-11-29T04:21:35.522Z,954.54
2022-11-29T04:22:35.535Z,954.55
2022-11-29T04:23:35.510Z,954.57
2022-11-29T04:24:35.519Z,954.58
2022-11-29T04:25:35.708Z,954.58
2022-11-29T04:26:35.563Z,954.59
2022-11-29T04:27:36.439Z,954.57
2022-11-29T04:28:38.423Z,954.6
2022-11-29T04:29:40.407Z,954.57
2022-11-29T04:30:42.414Z,954.6
2022-11-29T04:31:44.411Z,954.61
2022-11-29T04:32:46.447Z,954.6
2022-11-29T04:33:48.420Z,954.58
2022-11-29T04:34:50.415Z,954.6
2022-11-29T04:35:52.415Z,954.62
2022-11-29T04:36:55.431Z,954.63
2022-11-29T04:37:58.436Z,954.63
2022-11-29T04:39:00.448Z,954.63
2022-11-29T04:40:02.427Z,954.62
2022-11-29T04:41:04.423Z,954.64
2022-11-29T04:42:06.429Z,954.66
2022-11-29T04:43:08.443Z,954.65
2022-11-29T04:44:10.432Z,954.65
2022-11-29T04:45:12.442Z,954.66
2022-11-29T04:46:14.514Z,954.65
2022-11-29T04:47:16.453Z,954.68
2022-11-29T04:48:18.417Z,954.68
2022-11-29T04:49:20.424Z,954.67
2022-11-29T04:50:22.448Z,954.66
2022-11-29T04:51:24.431Z,954.67
2022-11-29T04:52:26.472Z,954.7
2022-11-29T04:53:28.427Z,954.71
2022-11-29T04:54:30.430Z,954.72
2022-11-29T04:55:33.439Z,954.73
2022-11-29T04:56:35.450Z,954.72
2022-11-29T04:57:37.435Z,954.69
2022-11-29T04:58:39.425Z,954.68
2022-11-29T04:59:41.433Z,954.7
2022-11-29T05:00:43.431Z,954.71
2022-11-29T05:01:46.525Z,954.72
2022-11-29T05:02:48.507Z,954.73
2022-11-29T05:03:56.692Z,954.74
2022-11-29T05:04:52.439Z,954.79
2022-11-29T05:05:55.446Z,954.8
2022-11-29T05:06:58.574Z,954.8
2022-11-29T05:08:00.458Z,954.8
2022-11-29T05:09:02.440Z,954.82
2022-11-29T05:10:04.447Z,954.83
2022-11-29T05:11:06.436Z,954.85
2022-11-29T05:12:09.456Z,954.86
2022-11-29T05:13:11.444Z,954.85
2022-11-29T05:14:13.438Z,954.87
2022-11-29T05:15:15.434Z,954.91
2022-11-29T05:16:17.490Z,954.89
2022-11-29T05:17:19.455Z,954.91
2022-11-29T05:18:21.439Z,954.95
2022-11-29T05:19:23.439Z,954.92
2022-11-29T05:20:25.448Z,954.92
2022-11-29T05:21:27.442Z,954.93
2022-11-29T05:22:29.456Z,954.91
2022-11-29T05:23:31.448Z,954.92
2022-11-29T05:24:33.450Z,954.94
2022-11-29T05:25:35.454Z,954.92
2022-11-29T05:26:37.449Z,954.89
2022-11-29T05:27:39.515Z,954.91
2022-11-29T05:28:41.450Z,954.93
2022-11-29T05:29:43.451Z,954.93
2022-11-29T05:30:45.454Z,954.94
2022-11-29T05:31:47.442Z,954.98
2022-11-29T05:32:49.463Z,954.97
2022-11-29T05:33:51.449Z,954.95
2022-11-29T05:34:53.457Z,954.96
2022-11-29T05:35:55.481Z,954.93
2022-11-29T05:36:59.459Z,954.93
2022-11-29T05:38:01.480Z,954.96
2022-11-29T05:39:03.453Z,954.94
2022-11-29T05:40:05.466Z,954.92
2022-11-29T05:41:07.454Z,954.95
2022-11-29T05:42:09.460Z,954.95
2022-11-29T05:43:11.486Z,954.95
2022-11-29T05:44:13.465Z,954.97
2022-11-29T05:45:15.459Z,954.98
2022-11-29T05:46:17.554Z,954.98
2022-11-29T05:47:19.482Z,954.98
2022-11-29T05:48:21.470Z,954.98
2022-11-29T05:49:23.476Z,954.98
2022-11-29T05:50:25.474Z,954.99
2022-11-29T05:51:35.584Z,955.01
2022-11-29T05:52:35.577Z,955
2022-11-29T05:53:35.583Z,955.01
2022-11-29T05:54:35.579Z,955.03
2022-11-29T05:55:35.682Z,955.06
2022-11-29T05:56:37.465Z,955.04
2022-11-29T05:57:39.470Z,955.06
2022-11-29T05:58:41.498Z,955.08
2022-11-29T05:59:43.472Z,955.08
2022-11-29T06:00:46.511Z,955.11
2022-11-29T06:01:48.595Z,955.1
2022-11-29T06:02:50.499Z,955.13
2022-11-29T06:03:52.510Z,955.12
2022-11-29T06:04:55.496Z,955.13
2022-11-29T06:05:58.478Z,955.12
2022-11-29T06:07:00.478Z,955.15
2022-11-29T06:08:02.470Z,955.13
2022-11-29T06:09:04.669Z,955.19
2022-11-29T06:10:06.479Z,955.18
2022-11-29T06:11:08.478Z,955.18
2022-11-29T06:12:11.472Z,955.2
2022-11-29T06:13:13.475Z,955.18
2022-11-29T06:14:15.523Z,955.19
2022-11-29T06:15:17.485Z,955.2
2022-11-29T06:16:19.491Z,955.21
2022-11-29T06:17:21.474Z,955.21
2022-11-29T06:18:23.487Z,955.23
2022-11-29T06:19:25.672Z,955.23
2022-11-29T06:20:35.607Z,955.26
2022-11-29T06:21:35.596Z,955.24
2022-11-29T06:22:35.605Z,955.2
2022-11-29T06:23:35.610Z,955.27
2022-11-29T06:24:35.726Z,955.26
2022-11-29T06:25:51.148Z,955.25
2022-11-29T06:26:39.490Z,955.28
2022-11-29T06:27:41.486Z,955.27
2022-11-29T06:28:43.487Z,955.28
2022-11-29T06:30:35.626Z,955.26
2022-11-29T06:31:35.686Z,955.28
2022-11-29T06:32:35.611Z,955.3
2022-11-29T06:33:35.601Z,955.31
2022-11-29T06:34:35.603Z,955.3
2022-11-29T06:35:35.612Z,955.3
2022-11-29T06:36:35.618Z,955.35
2022-11-29T06:37:35.616Z,955.32
2022-11-29T06:38:35.606Z,955.32
2022-11-29T06:39:35.626Z,955.31
2022-11-29T06:41:11.495Z,955.34
2022-11-29T06:42:13.515Z,955.37
2022-11-29T06:43:15.497Z,955.36
2022-11-29T06:44:17.511Z,955.41
2022-11-29T06:45:20.492Z,955.4
2022-11-29T06:46:22.558Z,955.41
2022-11-29T06:47:24.519Z,955.41
2022-11-29T06:48:26.517Z,955.42
2022-11-29T06:49:28.511Z,955.43
2022-11-29T06:50:30.515Z,955.42
2022-11-29T06:51:32.508Z,955.42
2022-11-29T06:52:34.546Z,955.43
2022-11-29T06:53:36.511Z,955.42
2022-11-29T06:54:39.514Z,955.41
2022-11-29T06:55:41.514Z,955.43
2022-11-29T06:56:43.520Z,955.41
2022-11-29T06:57:46.517Z,955.43
2022-11-29T06:58:48.504Z,955.45
2022-11-29T06:59:50.568Z,955.45
2022-11-29T07:00:52.527Z,955.45
2022-11-29T07:01:55.592Z,955.5
2022-11-29T07:02:58.537Z,955.51
2022-11-29T07:04:00.513Z,955.52
2022-11-29T07:05:02.516Z,955.52
2022-11-29T07:06:04.512Z,955.55
2022-11-29T07:07:06.519Z,955.53
2022-11-29T07:08:08.561Z,955.55
2022-11-29T07:09:10.514Z,955.55
2022-11-29T07:10:14.968Z,955.56
2022-11-29T07:11:14.512Z,955.59
2022-11-29T07:12:16.517Z,955.56
2022-11-29T07:13:18.533Z,955.53
2022-11-29T07:14:20.521Z,955.55
2022-11-29T07:15:32.346Z,955.56
2022-11-29T07:16:36.496Z,955.57
2022-11-29T07:18:35.666Z,955.59
2022-11-29T07:28:20.896Z,955.62
2022-11-29T07:28:39.582Z,955.63
2022-11-29T07:29:46.965Z,955.62
2022-11-29T07:30:47.633Z,955.63
2022-11-29T07:31:49.669Z,955.62
2022-11-29T07:32:54.734Z,955.63
2022-11-29T07:33:53.639Z,955.65
2022-11-29T07:34:55.586Z,955.69
2022-11-29T07:35:57.592Z,955.71
2022-11-29T07:37:00.591Z,955.71
2022-11-29T07:38:02.592Z,955.7
2022-11-29T07:39:04.675Z,955.7
2022-11-29T07:40:06.594Z,955.69
2022-11-29T07:41:08.604Z,955.7
2022-11-29T07:42:10.606Z,955.73
2022-11-29T07:43:34.212Z,955.71
2022-11-29T07:44:41.645Z,955.68
2022-11-29T07:45:34.213Z,955.69
2022-11-29T07:46:34.268Z,955.71
2022-11-29T07:47:35.736Z,955.72
2022-11-29T07:48:34.224Z,955.75
2022-11-29T07:49:34.220Z,955.74
2022-11-29T07:50:34.250Z,955.77
2022-11-29T07:51:34.213Z,955.78
2022-11-29T07:52:34.213Z,955.79
2022-11-29T07:53:35.555Z,955.82
2022-11-29T07:54:37.556Z,955.82
2022-11-29T07:55:49.794Z,955.81
2022-11-29T07:56:41.575Z,955.8
2022-11-29T07:57:45.581Z,955.84
2022-11-29T07:58:47.645Z,955.85
2022-11-29T07:59:49.558Z,955.84
2022-11-29T08:00:51.802Z,955.85
2022-11-29T08:01:53.625Z,955.85
2022-11-29T08:02:55.558Z,955.84
2022-11-29T08:03:57.558Z,955.83
2022-11-29T08:04:59.561Z,955.87
2022-11-29T08:06:01.608Z,955.86
2022-11-29T08:07:03.571Z,955.89
2022-11-29T08:08:05.571Z,955.86
2022-11-29T08:09:07.574Z,955.84
2022-11-29T08:10:09.563Z,955.87
2022-11-29T08:11:11.836Z,955.88
2022-11-29T08:12:13.573Z,955.87
2022-11-29T08:13:15.567Z,955.86
2022-11-29T08:14:17.579Z,955.87
2022-11-29T08:15:19.567Z,955.87
2022-11-29T08:16:21.655Z,955.89
2022-11-29T08:17:23.605Z,955.88
2022-11-29T08:18:25.571Z,955.89
2022-11-29T08:19:28.872Z,955.88
2022-11-29T08:20:35.243Z,955.91
2022-11-29T08:22:33.863Z,955.93
2022-11-29T08:23:39.401Z,955.92
2022-11-29T08:24:38.863Z,955.93
2022-11-29T08:25:42.896Z,955.96
2022-11-29T08:28:51.144Z,956.01
2022-11-29T08:29:52.411Z,955.99
2022-11-29T08:30:54.439Z,955.98
2022-11-29T08:31:56.632Z,956.01
2022-11-29T08:32:58.414Z,956.03
2022-11-29T08:34:00.414Z,956.04
2022-11-29T08:35:02.394Z,956.03
2022-11-29T08:36:04.416Z,956.03
2022-11-29T08:37:06.431Z,956.05
2022-11-29T08:38:08.420Z,956.05
2022-11-29T08:39:10.420Z,956.05
2022-11-29T08:40:12.416Z,956.05
2022-11-29T08:41:14.419Z,956.05
2022-11-29T08:42:16.429Z,956.03
2022-11-29T08:43:18.418Z,956.02
2022-11-29T08:44:21.667Z,956.04
2022-11-29T08:45:22.521Z,956.05
2022-11-29T08:46:24.487Z,956.11
2022-11-29T08:47:26.438Z,956.1
2022-11-29T08:48:29.418Z,956.09
2022-11-29T08:49:31.415Z,956.1
2022-11-29T08:50:33.432Z,956.1
2022-11-29T08:51:35.415Z,956.1
2022-11-29T08:52:37.431Z,956.11
2022-11-29T08:53:39.431Z,956.12
2022-11-29T08:54:43.856Z,956.12
2022-11-29T08:55:49.746Z,956.13
2022-11-29T08:57:37.501Z,956.1
2022-11-29T08:57:49.431Z,956.12
2022-11-29T08:58:52.572Z,956.15
2022-11-29T09:00:05.259Z,956.15
2022-11-29T09:00:56.486Z,956.2
2022-11-29T09:02:00.121Z,956.16
2022-11-29T09:03:00.619Z,956.2
2022-11-29T09:04:02.479Z,956.18
2022-11-29T09:05:06.600Z,956.17
2022-11-29T09:06:11.759Z,956.21
2022-11-29T09:08:10.912Z,956.22
2022-11-29T09:09:12.887Z,956.23
2022-11-29T09:10:14.883Z,956.2
2022-11-29T09:11:16.881Z,956.23
2022-11-29T09:12:18.879Z,956.24
2022-11-29T09:13:20.919Z,956.27
2022-11-29T09:14:22.904Z,956.25
2022-11-29T09:15:24.883Z,956.24
2022-11-29T09:16:26.935Z,956.25
2022-11-29T09:17:28.919Z,956.24
2022-11-29T09:18:30.898Z,956.23
2022-11-29T09:19:32.925Z,956.2
2022-11-29T09:20:35.879Z,956.21
2022-11-29T09:21:37.884Z,956.25
2022-11-29T09:22:39.889Z,956.23
2022-11-29T09:23:41.924Z,956.25
2022-11-29T09:24:45.091Z,956.26
2022-11-29T09:25:46.889Z,956.26
2022-11-29T09:26:48.928Z,956.27
2022-11-29T09:27:50.891Z,956.28
2022-11-29T09:28:52.896Z,956.31
2022-11-29T09:29:54.896Z,956.32
2022-11-29T09:30:56.893Z,956.3
2022-11-29T09:31:58.983Z,956.34
2022-11-29T09:33:00.895Z,956.29
2022-11-29T09:34:02.898Z,956.31
2022-11-29T09:38:08.994Z,956.28
2022-11-29T09:38:09.468Z,956.29
2022-11-29T09:38:34.288Z,956.29
2022-11-29T09:39:35.714Z,956.27
2022-11-29T09:40:34.291Z,956.27
2022-11-29T09:41:34.291Z,956.28
2022-11-29T09:42:34.293Z,956.28
2022-11-29T09:43:34.307Z,956.28
2022-11-29T09:44:34.291Z,956.28
2022-11-29T09:45:34.359Z,956.31
2022-11-29T09:46:34.295Z,956.29
2022-11-29T09:47:34.638Z,956.31
2022-11-29T09:48:38.899Z,956.3
2022-11-29T09:53:12.522Z,956.35
2022-11-29T09:54:13.409Z,956.33
2022-11-29T09:55:15.427Z,956.35
2022-11-29T09:56:17.410Z,956.34
2022-11-29T09:57:21.472Z,956.36
2022-11-29T09:58:22.404Z,956.37
2022-11-29T09:59:24.655Z,956.35
2022-11-29T10:01:47.939Z,956.38
2022-11-29T10:02:49.784Z,956.39
2022-11-29T10:03:51.768Z,956.38
2022-11-29T10:04:53.783Z,956.39
2022-11-29T10:05:56.771Z,956.39
2022-11-29T10:06:58.773Z,956.38
2022-11-29T10:08:00.823Z,956.38
2022-11-29T10:09:03.772Z,956.38
2022-11-29T10:10:05.796Z,956.37
2022-11-29T10:11:08.831Z,956.37
2022-11-29T10:12:11.863Z,956.39
2022-11-29T10:13:13.772Z,956.41
2022-11-29T10:14:15.767Z,956.41
2022-11-29T10:15:17.777Z,956.4
2022-11-29T10:16:20.884Z,956.4
2022-11-29T10:17:23.581Z,956.36
2022-11-29T10:18:24.804Z,956.39
2022-11-29T10:19:26.772Z,956.38
2022-11-29T10:20:28.774Z,956.35
2022-11-29T10:21:30.766Z,956.33
2022-11-29T10:22:33.734Z,956.35
2022-11-29T10:23:34.824Z,956.35
2022-11-29T10:24:36.781Z,956.35
2022-11-29T10:25:38.777Z,956.35
2022-11-29T10:26:40.823Z,956.36
2022-11-29T10:27:42.779Z,956.35
2022-11-29T10:28:44.781Z,956.36
2022-11-29T10:29:46.784Z,956.36
2022-11-29T10:30:49.846Z,956.4
2022-11-29T10:31:51.820Z,956.38
2022-11-29T10:32:53.789Z,956.39
2022-11-29T10:33:56.687Z,956.38
2022-11-29T10:35:09.131Z,956.39
2022-11-29T10:36:01.855Z,956.38
2022-11-29T10:38:31.115Z,956.39
2022-11-29T10:40:24.656Z,956.37
2022-11-29T10:41:27.154Z,956.35
2022-11-29T10:43:43.488Z,956.36
2022-11-29T10:44:39.561Z,956.33
2022-11-29T10:49:01.242Z,956.33
2022-11-29T10:49:01.710Z,956.37
2022-11-29T10:49:34.342Z,956.34
2022-11-29T10:50:34.338Z,956.35
2022-11-29T10:51:34.366Z,956.29
2022-11-29T10:52:34.370Z,956.3
2022-11-29T10:53:34.340Z,956.3
2022-11-29T10:54:34.342Z,956.32
2022-11-29T10:55:34.384Z,956.38
2022-11-29T10:56:34.339Z,956.32
2022-11-29T10:57:34.375Z,956.33
2022-11-29T10:58:34.352Z,956.36
2022-11-29T10:59:34.399Z,956.38
2022-11-29T11:00:34.350Z,956.37
2022-11-29T11:02:40.450Z,956.4
2022-11-29T11:07:35.428Z,956.34
2022-11-29T11:11:36.156Z,956.41
2022-11-29T11:12:34.353Z,956.38
2022-11-29T11:13:34.348Z,956.39
2022-11-29T11:14:34.389Z,956.39
2022-11-29T11:15:34.355Z,956.41
2022-11-29T11:16:37.603Z,956.43
2022-11-29T11:17:34.361Z,956.38
2022-11-29T11:18:34.352Z,956.39
2022-11-29T11:20:28.351Z,956.39
2022-11-29T11:21:30.261Z,956.42
2022-11-29T11:22:33.387Z,956.42
2022-11-29T11:23:39.938Z,956.41
2022-11-29T11:24:38.354Z,956.41
2022-11-29T11:25:40.357Z,956.44
2022-11-29T11:26:42.366Z,956.45
2022-11-29T11:27:46.298Z,956.41
2022-11-29T11:28:47.373Z,956.42
2022-11-29T11:29:49.407Z,956.39
2022-11-29T11:30:51.404Z,956.43
2022-11-29T11:31:53.366Z,956.42
2022-11-29T11:32:55.366Z,956.44
2022-11-29T11:33:58.367Z,956.48
2022-11-29T11:36:08.715Z,956.45
2022-11-29T11:37:04.373Z,956.44
2022-11-29T11:38:07.411Z,956.42
2022-11-29T11:39:09.390Z,956.43
2022-11-29T11:40:11.457Z,956.43
2022-11-29T11:41:13.370Z,956.39
2022-11-29T11:42:15.402Z,956.43
2022-11-29T11:43:17.375Z,956.42
2022-11-29T11:44:45.695Z,956.45
2022-11-29T11:45:21.422Z,956.45
2022-11-29T11:46:23.416Z,956.45
2022-11-29T11:47:25.409Z,956.44
2022-11-29T11:48:27.390Z,956.44
2022-11-29T11:49:30.327Z,956.45
2022-11-29T11:50:31.381Z,956.47
2022-11-29T11:51:33.403Z,956.44
2022-11-29T11:52:40.220Z,956.45
2022-11-29T11:53:39.383Z,956.48
2022-11-29T11:54:41.384Z,956.48
2022-11-29T11:56:53.325Z,956.47
2022-11-29T11:58:34.423Z,956.49
2022-11-29T11:59:34.420Z,956.48
2022-11-29T12:01:02.275Z,956.48
2022-11-29T12:01:34.382Z,956.51
2022-11-29T12:02:34.474Z,956.5
2022-11-29T12:03:34.489Z,956.5
2022-11-29T12:04:34.380Z,956.5
2022-11-29T12:05:35.773Z,956.52
2022-11-29T12:06:34.415Z,956.49
2022-11-29T12:08:34.512Z,956.52
2022-11-29T12:09:34.420Z,956.48
2022-11-29T12:10:35.705Z,956.49
2022-11-29T12:11:34.397Z,956.53
2022-11-29T12:12:34.407Z,956.53
2022-11-29T12:13:34.435Z,956.53
2022-11-29T12:14:34.391Z,956.51
2022-11-29T12:15:34.499Z,956.54
2022-11-29T12:16:34.393Z,956.53
2022-11-29T12:17:34.396Z,956.52
2022-11-29T12:18:34.440Z,956.55
2022-11-29T12:19:34.391Z,956.55
2022-11-29T12:20:36.389Z,956.55
2022-11-29T12:21:38.387Z,956.53
2022-11-29T12:22:43.900Z,956.54
2022-11-29T12:23:43.427Z,956.56
2022-11-29T12:24:45.729Z,956.53
2022-11-29T12:25:47.460Z,956.53
2022-11-29T12:27:51.387Z,956.54
2022-11-29T12:29:56.439Z,956.51
2022-11-29T12:30:58.440Z,956.52
2022-11-29T12:33:03.847Z,956.49
2022-11-29T12:34:35.571Z,956.51
2022-11-29T12:35:34.425Z,956.5
2022-11-29T12:36:34.419Z,956.53
2022-11-29T12:37:34.429Z,956.52
2022-11-29T12:38:34.414Z,956.55
2022-11-29T12:39:34.428Z,956.55
2022-11-29T12:40:44.752Z,956.56
2022-11-29T12:41:34.409Z,956.55
2022-11-29T12:42:34.412Z,956.57
2022-11-29T12:43:34.420Z,956.55
2022-11-29T12:44:44.992Z,956.56
2022-11-29T12:46:34.563Z,956.55
2022-11-29T12:47:37.237Z,956.53
2022-11-29T12:48:38.588Z,956.54
2022-11-29T12:49:40.615Z,956.57
2022-11-29T12:50:42.598Z,956.56
2022-11-29T12:51:44.610Z,956.58
2022-11-29T12:52:46.617Z,956.55
2022-11-29T12:53:48.597Z,956.57
2022-11-29T12:54:50.599Z,956.54
2022-11-29T12:55:52.602Z,956.54
2022-11-29T12:56:54.636Z,956.52
2022-11-29T12:57:56.606Z,956.54
2022-11-29T12:58:58.600Z,956.54
2022-11-29T13:00:10.782Z,956.55
2022-11-29T13:01:02.603Z,956.58
2022-11-29T13:02:04.674Z,956.59
2022-11-29T13:03:06.651Z,956.58
2022-11-29T13:04:08.603Z,956.57
2022-11-29T13:05:10.599Z,956.57
2022-11-29T13:06:12.600Z,956.55
2022-11-29T13:07:14.668Z,956.52
2022-11-29T13:08:16.610Z,956.53
2022-11-29T13:09:18.608Z,956.58
2022-11-29T13:10:20.606Z,956.58
2022-11-29T13:11:22.601Z,956.6
2022-11-29T13:12:24.794Z,956.57
2022-11-29T13:13:27.651Z,956.61
2022-11-29T13:14:43.599Z,956.6
2022-11-29T13:16:33.683Z,956.61
2022-11-29T13:17:37.611Z,956.63
2022-11-29T13:18:39.614Z,956.58
2022-11-29T13:19:41.612Z,956.6
2022-11-29T13:20:43.620Z,956.62
2022-11-29T13:21:45.654Z,956.65
2022-11-29T13:22:49.623Z,956.6
2022-11-29T13:24:07.809Z,956.61
2022-11-29T13:24:52.613Z,956.62
2022-11-29T13:25:55.627Z,956.64
2022-11-29T13:26:57.649Z,956.65
2022-11-29T13:27:59.661Z,956.66
2022-11-29T13:29:01.634Z,956.66
2022-11-29T13:30:05.558Z,956.67
2022-11-29T13:31:06.703Z,956.69
2022-11-29T13:32:14.434Z,956.65
2022-11-29T13:33:10.672Z,956.67
2022-11-29T13:34:12.625Z,956.71
2022-11-29T13:35:14.712Z,956.76
2022-11-29T13:36:16.626Z,956.72
2022-11-29T13:37:18.619Z,956.74
2022-11-29T13:38:20.630Z,956.75
2022-11-29T13:39:22.633Z,956.74
2022-11-29T13:40:24.675Z,956.75
2022-11-29T13:41:27.627Z,956.72